Time;durP1;ratioP1;P1;durP2;ratioP2;P2;SDS_P1;SDS_P2;PMS_P1;PMS_P2;Temp;Humidity;BMP_temperature;BMP_pressure;BME280_temperature;BME280_humidity;BME280_pressure;Samples;Min_cycle;Max_cycle;Signal;HPM_P1;HPM_P2
2023/04/12 00:00:31;;;;;;;9.50;8.40;;;;;;;;;;107652;284;44105;-31
2023/04/12 00:03:21;;;;;;;8.20;7.00;;;;;;;;;;107647;284;42177;-31
2023/04/12 00:05:58;;;;;;;8.80;7.70;;;;;;;;;;107658;277;38826;-31
2023/04/12 00:08:35;;;;;;;8.30;7.40;;;;;;;;;;107607;284;39985;-31
2023/04/12 00:11:09;;;;;;;8.30;7.40;;;;;;;;;;107628;282;44151;-31
2023/04/12 00:13:43;;;;;;;8.80;7.40;;;;;;;;;;107642;284;42191;-31
2023/04/12 00:16:18;;;;;;;8.80;7.60;;;;;;;;;;107659;277;39917;-30
2023/04/12 00:18:54;;;;;;;8.40;7.10;;;;;;;;;;107612;282;39785;-30
2023/04/12 00:21:29;;;;;;;8.20;7.30;;;;;;;;;;107656;284;42906;-30
2023/04/12 00:24:05;;;;;;;8.10;6.90;;;;;;;;;;107645;289;43694;-30
2023/04/12 00:26:39;;;;;;;7.90;6.90;;;;;;;;;;107678;277;39905;-30
2023/04/12 00:29:13;;;;;;;8.70;7.10;;;;;;;;;;107575;277;39914;-30
2023/04/12 00:31:48;;;;;;;7.80;6.80;;;;;;;;;;107619;277;43944;-31
2023/04/12 00:34:24;;;;;;;8.30;7.20;;;;;;;;;;107658;284;43178;-31
2023/04/12 00:37:00;;;;;;;8.30;7.20;;;;;;;;;;107644;277;38770;-31
2023/04/12 00:39:34;;;;;;;8.10;6.90;;;;;;;;;;107618;276;40972;-31
2023/04/12 00:42:08;;;;;;;8.20;6.70;;;;;;;;;;107656;284;42655;-31
2023/04/12 00:44:42;;;;;;;7.80;6.50;;;;;;;;;;107665;284;43307;-31
2023/04/12 00:47:17;;;;;;;7.70;6.60;;;;;;;;;;107645;277;38878;-31
2023/04/12 00:49:53;;;;;;;8.10;7.10;;;;;;;;;;107633;282;40458;-31
2023/04/12 00:52:33;;;;;;;7.90;6.90;;;;;;;;;;107657;282;43993;-31
2023/04/12 00:55:11;;;;;;;7.70;6.90;;;;;;;;;;107629;284;42172;-31
2023/04/12 00:57:45;;;;;;;8.30;7.10;;;;;;;;;;107639;282;39846;-31
2023/04/12 01:00:21;;;;;;;7.10;6.00;;;;;;;;;;107606;276;39732;-31
2023/04/12 01:02:57;;;;;;;8.60;6.90;;;;;;;;;;107677;277;42944;-31
2023/04/12 01:05:43;;;;;;;7.30;6.40;;;;;;;;;;107639;283;43256;-31
2023/04/12 01:08:27;;;;;;;7.70;6.80;;;;;;;;;;107664;277;40208;-30
2023/04/12 01:11:12;;;;;;;7.70;6.60;;;;;;;;;;107513;277;193901;-30
2023/04/12 01:13:55;;;;;;;7.70;6.30;;;;;;;;;;107636;282;43122;-30
2023/04/12 01:16:36;;;;;;;7.90;6.10;;;;;;;;;;107639;284;42247;-30
2023/04/12 01:19:34;;;;;;;7.10;5.70;;;;;;;;;;107651;288;38790;-30
2023/04/12 01:22:24;;;;;;;7.10;6.00;;;;;;;;;;107754;277;45590;-30
2023/04/12 01:25:22;;;;;;;7.70;6.10;;;;;;;;;;107642;285;42931;-30
2023/04/12 01:28:02;;;;;;;7.10;5.70;;;;;;;;;;107677;277;43269;-30
2023/04/12 01:30:38;;;;;;;7.00;5.80;;;;;;;;;;107599;284;39935;-30
2023/04/12 01:33:16;;;;;;;6.80;5.90;;;;;;;;;;107632;277;40844;-30
2023/04/12 01:35:53;;;;;;;7.30;5.50;;;;;;;;;;107642;282;44224;-30
2023/04/12 01:38:30;;;;;;;7.00;5.50;;;;;;;;;;107282;282;533312;-30
2023/04/12 01:41:08;;;;;;;7.10;5.80;;;;;;;;;;107623;283;39917;-30
2023/04/12 01:43:45;;;;;;;6.50;5.40;;;;;;;;;;107680;282;39843;-30
2023/04/12 01:46:25;;;;;;;7.00;5.50;;;;;;;;;;107631;277;42949;-30
2023/04/12 01:49:01;;;;;;;6.50;5.10;;;;;;;;;;107659;277;43474;-30
2023/04/12 01:51:50;;;;;;;6.70;5.20;;;;;;;;;;107651;276;38753;-30
2023/04/12 01:54:30;;;;;;;6.70;5.40;;;;;;;;;;107652;282;40820;-30
2023/04/12 01:57:08;;;;;;;6.80;5.50;;;;;;;;;;107687;277;42892;-30
2023/04/12 01:59:45;;;;;;;7.00;5.40;;;;;;;;;;107649;284;44578;-30
2023/04/12 02:02:22;;;;;;;6.80;5.20;;;;;;;;;;107623;277;38780;-30
2023/04/12 02:04:58;;;;;;;6.30;5.10;;;;;;;;;;107562;282;175675;-30
2023/04/12 02:07:33;;;;;;;6.20;4.90;;;;;;;;;;107616;277;43012;-30
2023/04/12 02:10:08;;;;;;;6.50;5.10;;;;;;;;;;107656;282;41924;-30
2023/04/12 02:12:42;;;;;;;6.60;5.10;;;;;;;;;;107651;282;38922;-30
2023/04/12 02:15:20;;;;;;;6.90;5.70;;;;;;;;;;107659;282;39984;-30
2023/04/12 02:17:54;;;;;;;6.30;5.00;;;;;;;;;;107634;282;44097;-30
2023/04/12 02:20:31;;;;;;;6.50;5.10;;;;;;;;;;107688;277;43312;-30
2023/04/12 02:23:09;;;;;;;6.40;5.20;;;;;;;;;;107620;284;38817;-31
2023/04/12 02:25:45;;;;;;;6.40;5.20;;;;;;;;;;107674;282;40823;-31
2023/04/12 02:28:21;;;;;;;6.60;5.30;;;;;;;;;;107690;277;44025;-31
2023/04/12 02:30:56;;;;;;;6.30;4.80;;;;;;;;;;107641;283;42498;-30
2023/04/12 02:33:32;;;;;;;6.00;4.50;;;;;;;;;;107624;283;39935;-30
2023/04/12 02:36:12;;;;;;;6.10;4.70;;;;;;;;;;107635;282;39747;-30
2023/04/12 02:38:49;;;;;;;6.20;4.70;;;;;;;;;;107667;277;43053;-30
2023/04/12 02:41:25;;;;;;;6.30;5.00;;;;;;;;;;107651;282;42192;-30
2023/04/12 02:44:00;;;;;;;6.80;4.90;;;;;;;;;;107666;284;45636;-30
2023/04/12 02:46:35;;;;;;;6.10;4.70;;;;;;;;;;107658;277;39727;-30
2023/04/12 02:49:11;;;;;;;5.70;4.40;;;;;;;;;;107610;284;42644;-30
2023/04/12 02:51:47;;;;;;;5.80;4.60;;;;;;;;;;107598;282;44377;-30
2023/04/12 02:54:25;;;;;;;6.00;4.80;;;;;;;;;;107668;282;46029;-30
2023/04/12 02:57:02;;;;;;;6.00;5.10;;;;;;;;;;107655;282;39524;-30
2023/04/12 02:59:38;;;;;;;6.20;5.00;;;;;;;;;;107636;277;44275;-30
2023/04/12 03:02:12;;;;;;;5.50;4.10;;;;;;;;;;107617;277;43446;-30
2023/04/12 03:04:49;;;;;;;6.50;4.60;;;;;;;;;;107643;282;38841;-30
2023/04/12 03:07:26;;;;;;;6.40;4.70;;;;;;;;;;107652;286;40879;-30
2023/04/12 03:10:01;;;;;;;6.30;4.50;;;;;;;;;;107690;277;44001;-30
2023/04/12 03:12:35;;;;;;;7.00;5.00;;;;;;;;;;107636;277;43440;-30
2023/04/12 03:15:11;;;;;;;6.10;4.60;;;;;;;;;;107580;277;175336;-30
2023/04/12 03:17:46;;;;;;;7.00;5.00;;;;;;;;;;107700;277;39707;-30
2023/04/12 03:20:24;;;;;;;6.50;4.60;;;;;;;;;;107656;284;44041;-30
2023/04/12 03:22:58;;;;;;;6.30;4.70;;;;;;;;;;107606;284;42189;-30
2023/04/12 03:25:33;;;;;;;5.90;4.40;;;;;;;;;;107617;277;38570;-30
2023/04/12 03:28:08;;;;;;;6.40;4.40;;;;;;;;;;107624;284;39694;-30
2023/04/12 03:30:42;;;;;;;6.10;4.40;;;;;;;;;;107629;277;42992;-30
2023/04/12 03:33:16;;;;;;;6.00;4.30;;;;;;;;;;107587;282;43197;-30
2023/04/12 03:35:50;;;;;;;6.40;4.50;;;;;;;;;;107675;282;38567;-30
2023/04/12 03:38:23;;;;;;;6.70;4.70;;;;;;;;;;107552;277;175706;-31
2023/04/12 03:40:57;;;;;;;6.20;4.30;;;;;;;;;;107673;277;42891;-31
2023/04/12 03:43:34;;;;;;;6.60;4.30;;;;;;;;;;107618;277;42145;-30
2023/04/12 03:46:09;;;;;;;6.40;4.50;;;;;;;;;;107645;277;39040;-30
2023/04/12 03:48:43;;;;;;;5.80;4.40;;;;;;;;;;107675;277;40810;-30
2023/04/12 03:51:21;;;;;;;6.40;4.50;;;;;;;;;;107636;277;42902;-30
2023/04/12 03:53:54;;;;;;;6.30;4.50;;;;;;;;;;107614;282;42256;-30
2023/04/12 03:56:30;;;;;;;5.70;4.30;;;;;;;;;;107633;277;38782;-30
2023/04/12 03:59:08;;;;;;;5.80;4.20;;;;;;;;;;107618;277;39840;-30
2023/04/12 04:01:45;;;;;;;6.30;4.70;;;;;;;;;;107667;282;42939;-30
2023/04/12 04:04:21;;;;;;;7.40;5.00;;;;;;;;;;107599;277;42602;-30
2023/04/12 04:06:58;;;;;;;6.20;4.10;;;;;;;;;;107633;277;38933;-31
2023/04/12 04:09:34;;;;;;;6.40;3.90;;;;;;;;;;107641;277;39714;-31
2023/04/12 04:12:09;;;;;;;6.00;4.10;;;;;;;;;;107673;277;43053;-31
2023/04/12 04:14:44;;;;;;;5.90;4.10;;;;;;;;;;107619;282;42502;-31
2023/04/12 04:17:18;;;;;;;5.70;4.10;;;;;;;;;;107672;277;40881;-30
2023/04/12 04:19:55;;;;;;;5.80;4.10;;;;;;;;;;107778;284;41179;-31
2023/04/12 04:22:31;;;;;;;5.60;4.00;;;;;;;;;;107632;277;42859;-31
2023/04/12 04:25:06;;;;;;;5.40;3.80;;;;;;;;;;107629;284;44406;-31
2023/04/12 04:27:43;;;;;;;5.60;3.80;;;;;;;;;;107679;280;38784;-31
2023/04/12 04:30:21;;;;;;;5.80;4.10;;;;;;;;;;107724;277;39791;-31
2023/04/12 04:32:57;;;;;;;5.80;4.00;;;;;;;;;;107730;284;44027;-31
2023/04/12 04:35:32;;;;;;;5.30;3.80;;;;;;;;;;107669;277;42265;-31
2023/04/12 04:38:06;;;;;;;5.70;3.80;;;;;;;;;;107615;284;38750;-31
2023/04/12 04:40:42;;;;;;;5.20;3.80;;;;;;;;;;107690;277;39696;-31
2023/04/12 04:43:19;;;;;;;5.40;3.70;;;;;;;;;;107685;286;43011;-31
2023/04/12 04:45:55;;;;;;;5.30;3.40;;;;;;;;;;107632;284;42362;-31
2023/04/12 04:48:30;;;;;;;5.20;3.70;;;;;;;;;;107665;286;38783;-31
2023/04/12 04:51:05;;;;;;;5.60;3.80;;;;;;;;;;107648;284;39890;-31
2023/04/12 04:53:41;;;;;;;5.50;3.70;;;;;;;;;;107659;277;44035;-31
2023/04/12 04:56:16;;;;;;;5.10;3.80;;;;;;;;;;107595;282;42269;-31
2023/04/12 04:58:50;;;;;;;5.60;3.60;;;;;;;;;;107615;277;38957;-31
2023/04/12 05:01:27;;;;;;;6.10;3.70;;;;;;;;;;107625;284;39719;-30
2023/04/12 05:04:01;;;;;;;5.80;3.40;;;;;;;;;;107660;284;42862;-30
2023/04/12 05:06:36;;;;;;;5.40;3.80;;;;;;;;;;107631;282;42271;-30
2023/04/12 05:09:12;;;;;;;5.50;3.70;;;;;;;;;;107650;277;39078;-30
2023/04/12 05:11:47;;;;;;;5.70;3.70;;;;;;;;;;107634;284;40020;-30
2023/04/12 05:14:22;;;;;;;5.20;3.50;;;;;;;;;;107643;277;43011;-30
2023/04/12 05:16:59;;;;;;;5.30;3.60;;;;;;;;;;107604;282;43319;-30
2023/04/12 05:19:33;;;;;;;5.50;3.80;;;;;;;;;;107626;284;39879;-30
2023/04/12 05:22:07;;;;;;;5.50;3.40;;;;;;;;;;107652;284;39742;-30
2023/04/12 05:24:43;;;;;;;4.90;3.40;;;;;;;;;;107637;277;43238;-30
2023/04/12 05:27:20;;;;;;;4.70;3.00;;;;;;;;;;107617;277;49189;-31
2023/04/12 05:29:57;;;;;;;5.10;3.30;;;;;;;;;;107626;277;39899;-31
2023/04/12 05:32:32;;;;;;;5.00;3.20;;;;;;;;;;107628;282;40751;-31
2023/04/12 05:35:08;;;;;;;5.80;3.80;;;;;;;;;;107621;282;42857;-31
2023/04/12 05:37:43;;;;;;;5.80;3.80;;;;;;;;;;107653;284;49711;-31
2023/04/12 05:40:18;;;;;;;5.70;3.90;;;;;;;;;;107638;277;40100;-31
2023/04/12 05:42:54;;;;;;;5.50;3.30;;;;;;;;;;107631;282;39743;-31
2023/04/12 05:45:31;;;;;;;5.00;3.30;;;;;;;;;;107607;284;41917;-32
2023/04/12 05:48:06;;;;;;;5.60;3.70;;;;;;;;;;107611;277;49492;-31
2023/04/12 05:50:40;;;;;;;6.50;3.90;;;;;;;;;;107671;284;39890;-31
2023/04/12 05:53:14;;;;;;;8.00;4.50;;;;;;;;;;107681;277;39638;-32
2023/04/12 05:55:49;;;;;;;9.50;5.70;;;;;;;;;;107686;282;43154;-32
2023/04/12 05:58:23;;;;;;;7.90;5.10;;;;;;;;;;107629;277;49318;-32
2023/04/12 06:00:57;;;;;;;6.90;4.60;;;;;;;;;;107650;277;38819;-32
2023/04/12 06:03:32;;;;;;;6.90;4.50;;;;;;;;;;107637;277;40194;-32
2023/04/12 06:06:08;;;;;;;8.20;4.80;;;;;;;;;;107589;277;43262;-30
2023/04/12 06:08:43;;;;;;;7.50;4.60;;;;;;;;;;107655;284;48464;-32
2023/04/12 06:11:18;;;;;;;6.70;4.20;;;;;;;;;;107628;277;38837;-32
2023/04/12 06:13:53;;;;;;;7.20;4.60;;;;;;;;;;107642;277;40345;-31
2023/04/12 06:16:27;;;;;;;7.10;4.50;;;;;;;;;;107613;284;42968;-31
2023/04/12 06:19:03;;;;;;;6.80;4.20;;;;;;;;;;107621;277;48465;-31
2023/04/12 06:21:38;;;;;;;7.90;4.40;;;;;;;;;;107643;277;38808;-31
2023/04/12 06:24:15;;;;;;;6.40;4.40;;;;;;;;;;107668;277;39831;-31
2023/04/12 06:26:49;;;;;;;7.10;4.20;;;;;;;;;;107569;282;42992;-31
2023/04/12 06:29:25;;;;;;;6.30;4.10;;;;;;;;;;107620;277;42301;-31
2023/04/12 06:31:59;;;;;;;7.10;4.30;;;;;;;;;;107532;277;175627;-31
2023/04/12 06:34:35;;;;;;;8.40;5.00;;;;;;;;;;106991;282;893301;-31
2023/04/12 06:37:10;;;;;;;7.40;4.80;;;;;;;;;;107590;277;43222;-31
2023/04/12 06:39:46;;;;;;;8.30;4.60;;;;;;;;;;107680;277;42215;-31
2023/04/12 06:42:20;;;;;;;9.00;4.70;;;;;;;;;;107650;277;38845;-31
2023/04/12 06:44:54;;;;;;;7.80;4.80;;;;;;;;;;107607;283;39915;-31
2023/04/12 06:47:32;;;;;;;7.40;4.80;;;;;;;;;;107500;284;175612;-31
2023/04/12 06:50:11;;;;;;;8.90;5.30;;;;;;;;;;107630;284;42410;-31
2023/04/12 06:52:47;;;;;;;9.10;5.40;;;;;;;;;;107698;277;39026;-31
2023/04/12 06:55:21;;;;;;;9.60;6.10;;;;;;;;;;107651;282;40827;-31
2023/04/12 06:57:59;;;;;;;9.30;5.50;;;;;;;;;;107646;277;42901;-31
2023/04/12 07:00:34;;;;;;;9.80;5.80;;;;;;;;;;107697;282;42257;-31
2023/04/12 07:03:10;;;;;;;9.50;5.90;;;;;;;;;;107648;283;38825;-31
2023/04/12 07:05:46;;;;;;;10.80;6.40;;;;;;;;;;107629;284;39919;-31
2023/04/12 07:08:20;;;;;;;11.20;6.30;;;;;;;;;;107579;277;44112;-32
2023/04/12 07:10:57;;;;;;;10.60;6.30;;;;;;;;;;107669;284;42500;-31
2023/04/12 07:13:43;;;;;;;10.70;7.00;;;;;;;;;;107661;277;39426;-32
2023/04/12 07:16:17;;;;;;;10.90;6.60;;;;;;;;;;107652;282;39819;-32
2023/04/12 07:18:53;;;;;;;11.00;6.60;;;;;;;;;;107624;277;43052;-32
2023/04/12 07:21:27;;;;;;;10.60;6.40;;;;;;;;;;107656;277;41868;-32
2023/04/12 07:24:01;;;;;;;9.90;6.20;;;;;;;;;;107644;277;39025;-31
2023/04/12 07:26:35;;;;;;;9.70;6.30;;;;;;;;;;107632;277;39894;-31
2023/04/12 07:29:09;;;;;;;9.70;6.10;;;;;;;;;;107586;277;43218;-31
2023/04/12 07:31:44;;;;;;;9.90;6.30;;;;;;;;;;107669;284;43340;-31
2023/04/12 07:34:19;;;;;;;9.10;5.90;;;;;;;;;;107677;282;39082;-31
2023/04/12 07:36:53;;;;;;;9.60;6.20;;;;;;;;;;107647;284;40960;-31
2023/04/12 07:39:28;;;;;;;11.20;6.60;;;;;;;;;;107584;284;43988;-30
2023/04/12 07:42:03;;;;;;;10.10;6.20;;;;;;;;;;107659;284;42173;-31
2023/04/12 07:44:37;;;;;;;9.90;6.20;;;;;;;;;;107642;283;39959;-31
2023/04/12 07:47:12;;;;;;;9.10;6.20;;;;;;;;;;107668;277;39769;-31
2023/04/12 07:49:46;;;;;;;9.40;5.90;;;;;;;;;;107651;282;43018;-31
2023/04/12 07:52:20;;;;;;;9.20;6.10;;;;;;;;;;107672;284;44424;-30
2023/04/12 07:54:54;;;;;;;8.40;5.80;;;;;;;;;;107655;284;39098;-30
2023/04/12 07:57:28;;;;;;;9.20;5.90;;;;;;;;;;107637;277;39717;-31
2023/04/12 08:00:04;;;;;;;8.90;6.00;;;;;;;;;;107661;284;44091;-30
2023/04/12 08:02:39;;;;;;;8.10;5.70;;;;;;;;;;107626;277;42501;-31
2023/04/12 08:05:17;;;;;;;9.40;6.00;;;;;;;;;;107656;277;38824;-30
2023/04/12 08:07:54;;;;;;;9.40;5.90;;;;;;;;;;107660;277;39862;-32
2023/04/12 08:10:30;;;;;;;10.50;6.10;;;;;;;;;;107604;282;43105;-32
2023/04/12 08:13:05;;;;;;;8.90;6.10;;;;;;;;;;107691;282;42532;-31
2023/04/12 08:15:43;;;;;;;9.50;6.10;;;;;;;;;;107644;277;38943;-31
2023/04/12 08:18:18;;;;;;;8.00;5.50;;;;;;;;;;107615;284;39793;-32
2023/04/12 08:20:52;;;;;;;9.20;5.80;;;;;;;;;;107600;282;43032;-32
2023/04/12 08:23:28;;;;;;;7.80;5.70;;;;;;;;;;107666;284;42201;-31
2023/04/12 08:26:03;;;;;;;8.30;5.60;;;;;;;;;;107622;284;38809;-31
2023/04/12 08:28:38;;;;;;;8.10;5.90;;;;;;;;;;107661;277;39829;-31
2023/04/12 08:31:12;;;;;;;9.30;5.70;;;;;;;;;;107591;282;43006;-31
2023/04/12 08:33:47;;;;;;;7.70;5.50;;;;;;;;;;106987;277;892502;-32
2023/04/12 08:36:22;;;;;;;8.20;5.70;;;;;;;;;;107630;277;38925;-31
2023/04/12 08:39:00;;;;;;;7.80;5.60;;;;;;;;;;107620;283;39742;-31
2023/04/12 08:41:34;;;;;;;9.00;6.00;;;;;;;;;;107587;276;43183;-31
2023/04/12 08:44:14;;;;;;;9.10;5.60;;;;;;;;;;107654;277;43389;-31
2023/04/12 08:46:48;;;;;;;7.50;5.40;;;;;;;;;;107639;277;38783;-31
2023/04/12 08:49:27;;;;;;;8.30;5.50;;;;;;;;;;107611;277;40109;-31
2023/04/12 08:52:05;;;;;;;8.30;6.00;;;;;;;;;;107649;277;42922;-31
2023/04/12 08:54:41;;;;;;;7.40;5.70;;;;;;;;;;107632;277;42160;-31
2023/04/12 08:57:16;;;;;;;7.80;5.90;;;;;;;;;;107602;282;40817;-31
2023/04/12 08:59:54;;;;;;;8.60;6.30;;;;;;;;;;107588;277;39854;-31
2023/04/12 09:02:31;;;;;;;7.80;6.40;;;;;;;;;;107651;282;43887;-30
2023/04/12 09:05:09;;;;;;;8.00;6.20;;;;;;;;;;107618;284;41911;-32
2023/04/12 09:07:44;;;;;;;9.00;6.60;;;;;;;;;;107623;277;38570;-31
2023/04/12 09:10:35;;;;;;;8.30;6.50;;;;;;;;;;107628;277;41340;-31
2023/04/12 09:13:13;;;;;;;9.00;6.30;;;;;;;;;;107632;284;43918;-31
2023/04/12 09:15:53;;;;;;;8.40;6.60;;;;;;;;;;107527;279;43308;-31
2023/04/12 09:18:27;;;;;;;8.40;7.00;;;;;;;;;;107629;277;38998;-31
2023/04/12 09:21:14;;;;;;;8.10;6.50;;;;;;;;;;107561;282;39809;-31
2023/04/12 09:24:08;;;;;;;9.90;7.10;;;;;;;;;;107632;277;43915;-31
2023/04/12 09:26:47;;;;;;;9.00;7.30;;;;;;;;;;106987;282;892966;-31
2023/04/12 09:29:27;;;;;;;9.00;7.10;;;;;;;;;;107623;277;38860;-31
2023/04/12 09:32:05;;;;;;;8.30;6.90;;;;;;;;;;107607;283;40219;-31
2023/04/12 09:34:57;;;;;;;8.90;7.40;;;;;;;;;;107644;282;42985;-31
2023/04/12 09:37:31;;;;;;;;;;;;;;;;;;107631;277;42177;-31
2023/04/12 09:40:10;;;;;;;9.10;7.40;;;;;;;;;;107124;283;520279;-31
2023/04/12 09:42:57;;;;;;;9.30;7.20;;;;;;;;;;107624;283;40906;-31
2023/04/12 09:45:37;;;;;;;9.00;7.60;;;;;;;;;;107607;285;42877;-31
2023/04/12 09:48:22;;;;;;;8.30;7.20;;;;;;;;;;107659;282;42253;-30
2023/04/12 09:51:01;;;;;;;8.80;7.40;;;;;;;;;;107558;283;39852;-30
2023/04/12 09:53:40;;;;;;;8.80;7.40;;;;;;;;;;107603;282;40882;-31
2023/04/12 09:56:15;;;;;;;9.50;7.60;;;;;;;;;;107576;285;42822;-31
2023/04/12 09:58:52;;;;;;;8.50;7.30;;;;;;;;;;107625;277;43306;-31
2023/04/12 10:01:29;;;;;;;9.00;7.60;;;;;;;;;;107499;286;38796;-31
2023/04/12 10:04:04;;;;;;;9.20;7.70;;;;;;;;;;107489;283;40916;-31
2023/04/12 10:06:41;;;;;;;8.30;7.40;;;;;;;;;;107633;283;42876;-31
2023/04/12 10:09:18;;;;;;;8.40;7.20;;;;;;;;;;107649;285;42317;-31
2023/04/12 10:11:56;;;;;;;8.40;7.40;;;;;;;;;;107563;285;39929;-31
2023/04/12 10:14:33;;;;;;;8.60;7.40;;;;;;;;;;107642;285;40083;-31
2023/04/12 10:17:09;;;;;;;8.90;7.20;;;;;;;;;;107637;283;42972;-31
2023/04/12 10:19:46;;;;;;;8.30;7.20;;;;;;;;;;107617;285;41885;-31
2023/04/12 10:22:25;;;;;;;8.70;6.90;;;;;;;;;;107583;285;38837;-31
2023/04/12 10:25:00;;;;;;;8.00;7.00;;;;;;;;;;107624;285;39861;-31
2023/04/12 10:27:35;;;;;;;8.80;7.50;;;;;;;;;;107602;285;43348;-30
2023/04/12 10:30:28;;;;;;;7.80;6.80;;;;;;;;;;107620;284;42290;-31
2023/04/12 10:33:17;;;;;;;8.00;6.70;;;;;;;;;;107605;284;38567;-31
2023/04/12 10:35:59;;;;;;;7.70;6.40;;;;;;;;;;107670;277;39764;-31
2023/04/12 10:39:10;;;;;;;8.10;6.60;;;;;;;;;;107608;282;44127;-31
2023/04/12 10:42:21;;;;;;;8.00;6.30;;;;;;;;;;107588;282;42104;-31
2023/04/12 10:44:58;;;;;;;8.10;6.20;;;;;;;;;;107515;277;175141;-31
2023/04/12 10:48:00;;;;;;;8.10;6.30;;;;;;;;;;107604;282;39627;-31
2023/04/12 10:50:37;;;;;;;7.70;6.10;;;;;;;;;;107630;277;42634;-31
2023/04/12 10:53:29;;;;;;;7.50;5.80;;;;;;;;;;107584;277;42160;-31
2023/04/12 10:56:38;;;;;;;7.50;5.90;;;;;;;;;;107642;282;38803;-31
2023/04/12 10:59:17;;;;;;;7.20;5.90;;;;;;;;;;107629;277;39740;-31
2023/04/12 11:02:15;;;;;;;6.80;5.80;;;;;;;;;;107618;277;42667;-31
2023/04/12 11:05:12;;;;;;;7.00;5.50;;;;;;;;;;107576;277;41902;-30
2023/04/12 11:07:47;;;;;;;7.50;6.20;;;;;;;;;;107630;277;38895;-31
2023/04/12 11:10:24;;;;;;;6.50;5.50;;;;;;;;;;107634;282;41973;-30
2023/04/12 11:13:10;;;;;;;6.90;5.50;;;;;;;;;;107610;277;42874;-30
2023/04/12 11:15:45;;;;;;;7.50;5.90;;;;;;;;;;107615;282;48032;-30
2023/04/12 11:18:25;;;;;;;7.00;5.60;;;;;;;;;;106990;277;909588;-30
2023/04/12 11:21:01;;;;;;;7.70;5.80;;;;;;;;;;107611;277;39858;-31
2023/04/12 11:23:37;;;;;;;7.60;5.90;;;;;;;;;;107565;277;43004;-31
2023/04/12 11:26:12;;;;;;;8.50;5.90;;;;;;;;;;107633;277;41891;-31
2023/04/12 11:28:52;;;;;;;7.50;5.80;;;;;;;;;;107665;277;39244;-30
2023/04/12 11:31:27;;;;;;;7.10;5.70;;;;;;;;;;107622;282;39723;-30
2023/04/12 11:34:07;;;;;;;6.70;5.70;;;;;;;;;;107602;277;44068;-30
2023/04/12 11:36:43;;;;;;;7.00;5.60;;;;;;;;;;107503;277;175618;-30
2023/04/12 11:39:20;;;;;;;6.80;5.70;;;;;;;;;;107620;282;38543;-30
2023/04/12 11:41:54;;;;;;;6.80;5.80;;;;;;;;;;107650;282;39885;-30
2023/04/12 11:44:30;;;;;;;7.00;5.60;;;;;;;;;;107618;282;42672;-30
2023/04/12 11:47:28;;;;;;;7.10;5.70;;;;;;;;;;107650;282;41962;-30
2023/04/12 11:50:05;;;;;;;7.30;5.80;;;;;;;;;;107658;282;41283;-30
2023/04/12 11:52:40;;;;;;;7.40;6.00;;;;;;;;;;107662;277;40917;-30
2023/04/12 11:55:17;;;;;;;7.00;5.80;;;;;;;;;;107618;284;44390;-31
2023/04/12 11:57:55;;;;;;;7.70;6.50;;;;;;;;;;107655;282;41922;-31
2023/04/12 12:00:30;;;;;;;7.70;6.30;;;;;;;;;;107616;277;38977;-31
2023/04/12 12:03:04;;;;;;;7.30;6.20;;;;;;;;;;107640;277;39718;-32
2023/04/12 12:05:43;;;;;;;7.20;6.00;;;;;;;;;;107627;277;42825;-32
2023/04/12 12:08:18;;;;;;;7.40;6.20;;;;;;;;;;107670;277;42165;-32
2023/04/12 12:10:53;;;;;;;6.60;5.60;;;;;;;;;;107678;282;38884;-32
2023/04/12 12:13:52;;;;;;;7.10;5.80;;;;;;;;;;107679;284;39975;-32
2023/04/12 12:16:32;;;;;;;7.00;5.60;;;;;;;;;;107513;277;175578;-31
2023/04/12 12:19:08;;;;;;;6.90;5.70;;;;;;;;;;107608;277;42079;-31
2023/04/12 12:21:44;;;;;;;6.80;5.60;;;;;;;;;;107668;282;38563;-31
2023/04/12 12:24:27;;;;;;;7.40;6.30;;;;;;;;;;107675;277;39881;-31
2023/04/12 12:27:04;;;;;;;6.60;5.60;;;;;;;;;;107729;282;49222;-31
2023/04/12 12:29:39;;;;;;;7.30;6.40;;;;;;;;;;107697;282;42204;-31
2023/04/12 12:32:20;;;;;;;8.00;6.50;;;;;;;;;;107655;282;39127;-31
2023/04/12 12:34:56;;;;;;;7.80;6.20;;;;;;;;;;107618;277;39718;-31
2023/04/12 12:37:33;;;;;;;7.80;6.50;;;;;;;;;;107653;282;51586;-31
2023/04/12 12:40:12;;;;;;;7.80;6.20;;;;;;;;;;107627;277;42270;-31
2023/04/12 12:42:53;;;;;;;7.10;6.10;;;;;;;;;;107677;284;39966;-31
2023/04/12 12:45:29;;;;;;;6.30;5.50;;;;;;;;;;107587;277;41084;-31
2023/04/12 12:48:08;;;;;;;7.10;5.80;;;;;;;;;;107673;284;43531;-31
2023/04/12 12:50:43;;;;;;;6.80;5.70;;;;;;;;;;107636;277;42253;-31
2023/04/12 12:53:20;;;;;;;7.20;6.20;;;;;;;;;;107635;282;38560;-31
2023/04/12 12:56:00;;;;;;;7.40;6.30;;;;;;;;;;107612;282;39879;-31
2023/04/12 12:58:39;;;;;;;8.30;6.80;;;;;;;;;;107668;282;43049;-31
2023/04/12 13:01:19;;;;;;;7.10;5.90;;;;;;;;;;107652;284;43208;-31
2023/04/12 13:03:54;;;;;;;6.60;5.70;;;;;;;;;;107641;284;38753;-31
2023/04/12 13:06:30;;;;;;;6.30;5.20;;;;;;;;;;107602;277;39446;-31
2023/04/12 13:09:06;;;;;;;6.50;5.70;;;;;;;;;;107682;282;43736;-31
2023/04/12 13:11:40;;;;;;;6.70;5.60;;;;;;;;;;107648;283;42271;-31
2023/04/12 13:14:18;;;;;;;7.00;5.90;;;;;;;;;;107680;285;38583;-31
2023/04/12 13:16:52;;;;;;;6.50;5.50;;;;;;;;;;107624;284;40788;-30
2023/04/12 13:19:26;;;;;;;6.90;5.80;;;;;;;;;;107643;277;42837;-30
2023/04/12 13:22:03;;;;;;;6.60;5.70;;;;;;;;;;107643;277;42214;-30
2023/04/12 13:24:37;;;;;;;6.60;5.40;;;;;;;;;;107652;277;39824;-30
2023/04/12 13:27:14;;;;;;;6.60;5.60;;;;;;;;;;107612;277;39724;-30
2023/04/12 13:29:49;;;;;;;7.60;6.00;;;;;;;;;;107673;277;44035;-30
2023/04/12 13:32:24;;;;;;;6.40;5.60;;;;;;;;;;107642;277;42134;-30
2023/04/12 13:34:59;;;;;;;7.00;6.20;;;;;;;;;;107639;277;39818;-30
2023/04/12 13:37:34;;;;;;;6.70;5.90;;;;;;;;;;107560;277;40845;-30
2023/04/12 13:40:11;;;;;;;7.30;6.10;;;;;;;;;;107628;277;42998;-30
2023/04/12 13:42:45;;;;;;;6.60;5.70;;;;;;;;;;107670;284;42258;-30
2023/04/12 13:45:21;;;;;;;7.40;6.20;;;;;;;;;;107662;284;38999;-30
2023/04/12 13:47:55;;;;;;;6.90;6.00;;;;;;;;;;107469;277;175580;-30
2023/04/12 13:50:33;;;;;;;6.90;6.10;;;;;;;;;;107621;282;43914;-30
2023/04/12 13:53:07;;;;;;;7.50;6.60;;;;;;;;;;107626;277;42272;-30
2023/04/12 13:55:41;;;;;;;7.70;6.60;;;;;;;;;;107642;282;39990;-30
2023/04/12 13:58:15;;;;;;;7.90;6.40;;;;;;;;;;106976;282;911493;-30
2023/04/12 14:00:49;;;;;;;7.10;5.90;;;;;;;;;;107672;282;42882;-30
2023/04/12 14:03:23;;;;;;;7.80;6.40;;;;;;;;;;107642;282;41900;-30
2023/04/12 14:05:59;;;;;;;7.50;6.70;;;;;;;;;;107679;277;39005;-30
2023/04/12 14:08:33;;;;;;;7.60;6.80;;;;;;;;;;107611;277;41069;-30
2023/04/12 14:11:08;;;;;;;7.50;6.70;;;;;;;;;;107669;282;42960;-30
2023/04/12 14:13:42;;;;;;;7.40;6.70;;;;;;;;;;107674;282;43209;-30
2023/04/12 14:16:16;;;;;;;7.90;6.80;;;;;;;;;;107661;277;38844;-30
2023/04/12 14:18:50;;;;;;;7.60;6.50;;;;;;;;;;107622;282;39693;-30
2023/04/12 14:21:27;;;;;;;7.70;6.70;;;;;;;;;;107629;277;45157;-30
2023/04/12 14:24:01;;;;;;;7.10;6.40;;;;;;;;;;107640;277;42083;-30
2023/04/12 14:26:38;;;;;;;7.40;6.60;;;;;;;;;;107654;277;40210;-30
2023/04/12 14:29:14;;;;;;;7.30;6.50;;;;;;;;;;107592;282;40804;-31
2023/04/12 14:31:47;;;;;;;7.70;6.70;;;;;;;;;;107649;277;43002;-31
2023/04/12 14:34:23;;;;;;;7.80;6.30;;;;;;;;;;107636;277;44505;-31
2023/04/12 14:36:57;;;;;;;7.00;6.30;;;;;;;;;;107606;277;39963;-31
2023/04/12 14:39:34;;;;;;;7.30;6.20;;;;;;;;;;107578;277;40945;-31
2023/04/12 14:42:08;;;;;;;7.40;6.60;;;;;;;;;;107641;284;42694;-31
2023/04/12 14:44:43;;;;;;;7.30;6.50;;;;;;;;;;107658;282;42286;-31
2023/04/12 14:47:17;;;;;;;8.00;6.70;;;;;;;;;;107586;284;38539;-30
2023/04/12 14:49:52;;;;;;;7.80;6.70;;;;;;;;;;107560;277;40852;-31
2023/04/12 14:52:33;;;;;;;7.50;6.30;;;;;;;;;;107654;277;42963;-30
2023/04/12 14:55:10;;;;;;;7.20;6.40;;;;;;;;;;107506;277;175524;-30
2023/04/12 14:57:46;;;;;;;7.70;6.60;;;;;;;;;;107636;277;38775;-31
2023/04/12 15:00:22;;;;;;;7.50;6.30;;;;;;;;;;107621;277;48408;-31
2023/04/12 15:02:59;;;;;;;8.10;6.80;;;;;;;;;;107635;284;43262;-31
2023/04/12 15:05:33;;;;;;;7.20;6.40;;;;;;;;;;107623;277;42541;-31
2023/04/12 15:08:08;;;;;;;7.00;6.30;;;;;;;;;;107602;282;38926;-31
2023/04/12 15:10:42;;;;;;;7.20;6.50;;;;;;;;;;107619;277;46930;-31
2023/04/12 15:13:15;;;;;;;7.50;6.10;;;;;;;;;;107671;284;44101;-31
2023/04/12 15:15:49;;;;;;;7.10;6.30;;;;;;;;;;107679;277;42464;-31
2023/04/12 15:18:23;;;;;;;7.30;6.30;;;;;;;;;;107619;282;38884;-30
2023/04/12 15:20:59;;;;;;;7.20;6.50;;;;;;;;;;107646;282;45784;-30
2023/04/12 15:23:32;;;;;;;7.50;6.50;;;;;;;;;;107664;277;43010;-30
2023/04/12 15:26:07;;;;;;;7.50;6.50;;;;;;;;;;107649;284;42456;-30
2023/04/12 15:28:41;;;;;;;7.10;6.40;;;;;;;;;;107623;284;38860;-30
2023/04/12 15:31:15;;;;;;;7.00;6.20;;;;;;;;;;107649;282;47121;-30
2023/04/12 15:33:49;;;;;;;7.30;6.50;;;;;;;;;;107640;277;42897;-30
2023/04/12 15:36:32;;;;;;;7.40;6.50;;;;;;;;;;107665;283;42295;-30
2023/04/12 15:39:07;;;;;;;7.90;6.70;;;;;;;;;;107592;277;38921;-31
2023/04/12 15:41:42;;;;;;;7.40;6.40;;;;;;;;;;107637;277;39701;-31